Terminal Aerodrome Forecast
Issued by NWS

Current Version | Previous Version | Text Only | Print | Product List | Glossary On
Versions: 1 2 3 4 5 6 7 8 9 10 11 12 13 14
000
FTUS45 KREV 192329
TAFMMH
TAF
KMMH 192329Z 2000/2024 13007KT P6SM SCT060 BKN150 WS020/24040KT
     FM200100 24011G20KT P6SM VCSH SCT040 BKN070 OVC100
     FM200300 24011KT 5SM -RASN BKN025 OVC040
     FM200900 29008KT 6SM -RA BKN020 OVC040
     FM201500 26022G38KT 4SM -RA BKN008 BKN020 OVC035=

USA.gov is the U.S. government's official web portal to all federal, state and local government web resources and services.